Airport View

Enter AWOS ICAO identifier for current METAR.

ex. KFNL

KCXP 262115Z AUTO VRB04KT 10SM FEW011 18/M10 A3035 RMK AO2

26 Feb 2020 21:33

Frequency: 119.925

Phone: 775-884-4708

Other Area AWOS: KMEV - KRNO - KTRK - KTVL

TAF KCXP 261732Z 2618/2718 VRB03KT P6SM FEW180 SCT250 FM262100 28008G16KT P6SM FEW200 FM270300 VRB03KT P6SM SKC